Grasten, Denmark
Current Conditions -  °F | °C
As of 4:20 AM on Saturday 25 Oct 2014 (Local Time) from ETGG Reporting Station
NA  
Wind Chill: 50°   Ceiling: NA
Heat Index: 50°   Visibility: NA
Dew Point: 50°   Wind: 17mph
Humidity: 100%   Direction: 180°S
Pressure: 29.91"   Gusts: 30mph
Location:  54.92°N, 9.6°E
Report Text: ETGG 250220Z AUTO 18015G26KT //// // ////// 10/10 Q1013 ///
Loading
Personal Weather Stations






























Interactive Weather Map
Tropical Storm Tracking
New forecast layout! Learn more

10-Day Weather Forecast

Advertisements
Track Severe Weather on mobile